Time;durP1;ratioP1;P1;durP2;ratioP2;P2;SDS_P1;SDS_P2;PMS_P1;PMS_P2;Temp;Humidity;BMP_temperature;BMP_pressure;BME280_temperature;BME280_humidity;BME280_pressure;Samples;Min_cycle;Max_cycle;Signal;HPM_P1;HPM_P2
2022/01/06 00:00:40;;;;;;;25.35;6.70;;;4.90;95.90;;;;;;4992255;28;20812;-72
2022/01/06 00:03:05;;;;;;;21.80;6.80;;;5.00;94.10;;;;;;4992450;28;20437;-72
2022/01/06 00:05:31;;;;;;;14.77;5.80;;;4.90;93.50;;;;;;4992409;28;20397;-72
2022/01/06 00:07:56;;;;;;;22.27;6.32;;;4.80;93.90;;;;;;4992205;28;20394;-72
2022/01/06 00:10:23;;;;;;;20.55;5.50;;;4.80;94.00;;;;;;4992644;28;20394;-72
2022/01/06 00:23:43;;;;;;;29.08;6.05;;;4.90;92.10;;;;;;4992245;28;20437;-74
2022/01/06 00:26:09;;;;;;;17.63;5.18;;;5.00;90.50;;;;;;4991941;28;20414;-73
2022/01/06 00:28:36;;;;;;;21.63;6.30;;;5.00;89.50;;;;;;4992342;28;20391;-74
2022/01/06 00:31:04;;;;;;;26.40;5.90;;;5.10;87.80;;;;;;4991855;28;20460;-71
2022/01/06 00:33:32;;;;;;;24.98;5.20;;;5.10;88.10;;;;;;4991855;28;20405;-73
2022/01/06 00:35:58;;;;;;;19.63;5.03;;;5.10;86.60;;;;;;4991787;28;20378;-71
2022/01/06 00:38:25;;;;;;;22.93;5.07;;;5.10;86.50;;;;;;4991687;28;20545;-73
2022/01/06 00:40:51;;;;;;;20.27;5.20;;;4.90;88.20;;;;;;4991707;28;20390;-72
2022/01/06 00:43:17;;;;;;;25.25;6.18;;;4.80;90.80;;;;;;4991911;28;20460;-72
2022/01/06 00:45:43;;;;;;;19.98;5.60;;;4.60;92.40;;;;;;4991772;28;20410;-72
2022/01/06 00:48:11;;;;;;;22.77;5.90;;;4.60;93.30;;;;;;4991212;28;20456;-72
2022/01/06 00:50:39;;;;;;;29.30;5.97;;;4.60;94.40;;;;;;4991621;28;20379;-72
2022/01/06 00:53:05;;;;;;;26.55;6.13;;;4.60;94.10;;;;;;4991804;28;20482;-71
2022/01/06 00:55:32;;;;;;;22.87;5.30;;;4.60;92.80;;;;;;4991900;28;20395;-72
2022/01/06 00:57:58;;;;;;;18.27;4.60;;;4.60;91.90;;;;;;4991476;28;20848;-72
2022/01/06 01:00:27;;;;;;;19.50;4.88;;;4.50;92.70;;;;;;4991699;28;20408;-72
2022/01/06 01:02:53;;;;;;;21.45;5.00;;;4.50;92.40;;;;;;4990596;28;20398;-72
2022/01/06 01:05:18;;;;;;;23.48;5.18;;;4.50;92.10;;;;;;4993157;28;20736;-72
2022/01/06 01:07:44;;;;;;;22.58;5.55;;;4.40;92.70;;;;;;4997142;28;21010;-72
2022/01/06 01:10:10;;;;;;;19.38;4.60;;;4.30;92.80;;;;;;4994013;28;20448;-72
2022/01/06 01:12:35;;;;;;;25.30;5.50;;;4.30;93.00;;;;;;4991723;28;20517;-73
2022/01/06 01:15:08;;;;;;;22.87;4.70;;;4.30;92.60;;;;;;4991254;28;20416;-73
2022/01/06 01:17:34;;;;;;;24.25;5.55;;;4.30;92.70;;;;;;4991360;28;20405;-72
2022/01/06 01:20:01;;;;;;;23.80;5.43;;;4.20;93.00;;;;;;4991357;28;20477;-72
2022/01/06 01:22:27;;;;;;;20.88;5.00;;;4.20;93.90;;;;;;4991368;28;20421;-72
2022/01/06 01:24:52;;;;;;;23.83;5.32;;;4.10;93.60;;;;;;4991727;28;20414;-72
2022/01/06 01:27:21;;;;;;;25.23;5.30;;;4.20;95.00;;;;;;4991165;28;20932;-71
2022/01/06 01:29:58;;;;;;;30.27;5.60;;;4.10;92.70;;;;;;4995073;28;20392;-72
2022/01/06 01:32:30;;;;;;;22.58;4.95;;;4.00;95.00;;;;;;4995241;28;20387;-73
2022/01/06 01:35:00;;;;;;;31.48;5.53;;;3.90;94.80;;;;;;4995942;28;20402;-73
2022/01/06 01:37:27;;;;;;;24.45;6.03;;;3.90;94.90;;;;;;4995952;28;20891;-73
2022/01/06 01:39:52;;;;;;;24.40;5.35;;;3.90;94.90;;;;;;4996373;28;20453;-73
2022/01/06 01:42:18;;;;;;;19.23;4.93;;;4.00;94.00;;;;;;4996470;28;20473;-73
2022/01/06 01:44:45;;;;;;;23.33;5.07;;;4.00;94.20;;;;;;4997018;28;20401;-72
2022/01/06 01:47:14;;;;;;;20.38;5.13;;;4.00;94.30;;;;;;4997917;28;20432;-72
2022/01/06 01:49:52;;;;;;;31.10;4.50;;;3.80;94.80;;;;;;4999912;28;20398;-73
2022/01/06 01:52:17;;;;;;;31.15;5.57;;;3.90;97.00;;;;;;4996272;28;20450;-73
2022/01/06 01:54:43;;;;;;;22.73;4.80;;;4.00;90.80;;;;;;5000623;28;20521;-73
2022/01/06 01:57:09;;;;;;;24.08;5.10;;;3.90;91.90;;;;;;4998609;28;20394;-72
2022/01/06 01:59:34;;;;;;;24.98;5.13;;;4.00;91.60;;;;;;4995062;28;20390;-72
2022/01/06 02:02:00;;;;;;;21.88;4.68;;;3.90;92.30;;;;;;4994433;28;20442;-72
2022/01/06 02:04:25;;;;;;;26.73;4.90;;;4.00;91.80;;;;;;4994496;28;20406;-73
2022/01/06 02:06:51;;;;;;;28.27;5.10;;;4.00;87.70;;;;;;4994218;28;20497;-72
2022/01/06 02:09:17;;;;;;;26.58;4.72;;;3.90;90.70;;;;;;4994402;28;20880;-76
2022/01/06 02:11:42;;;;;;;27.92;4.13;;;3.80;92.00;;;;;;4994471;28;20390;-71
2022/01/06 02:14:08;;;;;;;32.03;4.73;;;3.80;93.10;;;;;;4994822;28;20416;-72
2022/01/06 02:16:34;;;;;;;17.93;3.90;;;3.90;90.90;;;;;;4994209;28;20395;-72
2022/01/06 02:19:00;;;;;;;21.03;4.83;;;3.90;89.20;;;;;;4993517;28;20398;-71
2022/01/06 02:21:26;;;;;;;22.25;5.63;;;3.90;88.50;;;;;;4993910;28;20390;-72
2022/01/06 02:23:51;;;;;;;23.77;4.90;;;3.90;88.30;;;;;;4994008;28;20417;-71
2022/01/06 02:26:17;;;;;;;21.90;4.97;;;4.00;87.50;;;;;;4994755;28;20438;-73
2022/01/06 02:28:43;;;;;;;23.73;5.97;;;3.90;88.00;;;;;;4996586;28;20389;-72
2022/01/06 02:31:10;;;;;;;25.35;4.50;;;3.80;88.90;;;;;;5001215;28;20462;-72
2022/01/06 02:33:36;;;;;;;18.05;4.82;;;4.00;90.30;;;;;;5002496;28;20387;-71
2022/01/06 02:36:02;;;;;;;18.85;4.32;;;4.00;87.90;;;;;;4994710;28;20387;-73
2022/01/06 02:38:28;;;;;;;28.77;4.38;;;4.00;87.60;;;;;;4994362;28;20386;-73
2022/01/06 02:40:54;;;;;;;23.45;4.30;;;3.90;87.90;;;;;;4994961;28;20395;-73
2022/01/06 02:43:23;;;;;;;28.70;5.30;;;4.00;86.50;;;;;;4995162;28;20398;-72
2022/01/06 02:45:49;;;;;;;24.08;4.60;;;3.90;86.70;;;;;;4993685;28;20414;-71
2022/01/06 02:48:15;;;;;;;18.73;4.28;;;3.80;87.10;;;;;;4993561;28;20383;-72
2022/01/06 02:50:43;;;;;;;24.15;5.57;;;3.80;88.30;;;;;;4994300;28;20386;-73
2022/01/06 02:53:10;;;;;;;19.90;4.80;;;3.70;89.00;;;;;;4994527;28;20402;-72
2022/01/06 02:55:38;;;;;;;19.60;3.90;;;3.80;88.90;;;;;;4994165;28;20442;-73
2022/01/06 02:58:04;;;;;;;22.77;3.78;;;4.00;82.20;;;;;;4993980;28;20872;-72
2022/01/06 03:00:30;;;;;;;16.33;4.30;;;4.10;79.80;;;;;;4993957;28;20394;-72
2022/01/06 03:02:56;;;;;;;19.50;3.70;;;4.10;79.30;;;;;;4993208;28;20464;-72
2022/01/06 03:05:22;;;;;;;16.33;4.40;;;4.00;78.70;;;;;;4993142;28;20391;-73
2022/01/06 03:07:50;;;;;;;23.80;4.28;;;4.00;79.00;;;;;;4993314;28;20394;-73
2022/01/06 03:10:17;;;;;;;27.88;5.07;;;4.00;79.60;;;;;;4995239;28;20474;-72
2022/01/06 03:12:47;;;;;;;26.83;4.57;;;4.00;80.80;;;;;;4994272;28;20490;-72
2022/01/06 03:15:19;;;;;;;19.58;4.60;;;4.10;79.40;;;;;;4992882;28;20395;-73
2022/01/06 03:17:47;;;;;;;25.63;4.65;;;4.20;77.90;;;;;;4993444;28;20787;-73
2022/01/06 03:20:15;;;;;;;21.30;4.85;;;4.10;80.40;;;;;;4993382;28;20390;-72
2022/01/06 03:22:41;;;;;;;17.63;4.60;;;4.30;77.00;;;;;;4993118;28;20395;-71
2022/01/06 03:25:08;;;;;;;24.00;4.63;;;4.40;74.80;;;;;;4993267;28;20387;-73
2022/01/06 03:27:34;;;;;;;16.90;3.60;;;4.40;73.30;;;;;;4993765;28;20437;-73
2022/01/06 03:30:01;;;;;;;22.00;3.72;;;4.40;70.40;;;;;;4993945;28;20436;-72
2022/01/06 03:32:26;;;;;;;21.88;4.00;;;4.40;71.40;;;;;;4993756;28;20907;-72
2022/01/06 03:34:52;;;;;;;21.52;4.18;;;4.40;71.20;;;;;;4993624;28;20390;-72
2022/01/06 03:37:18;;;;;;;20.97;4.80;;;4.30;71.40;;;;;;4997309;28;20408;-72
2022/01/06 03:39:44;;;;;;;23.53;4.73;;;4.40;69.80;;;;;;4999224;28;20903;-72
2022/01/06 03:42:11;;;;;;;20.02;4.70;;;4.40;70.00;;;;;;4994550;28;20405;-72
2022/01/06 03:44:36;;;;;;;22.65;4.07;;;4.40;69.60;;;;;;4994147;28;20394;-73
2022/01/06 03:47:03;;;;;;;22.73;4.80;;;4.40;69.70;;;;;;4995040;28;20457;-73
2022/01/06 03:49:28;;;;;;;19.70;3.58;;;4.30;70.20;;;;;;4996812;28;20880;-72
2022/01/06 03:51:54;;;;;;;23.83;4.70;;;4.30;71.90;;;;;;5001367;28;20394;-73
2022/01/06 03:54:20;;;;;;;25.77;5.17;;;4.20;71.60;;;;;;5002494;28;20383;-72
2022/01/06 03:56:48;;;;;;;31.47;4.30;;;4.10;72.60;;;;;;5000667;28;20387;-71
2022/01/06 03:59:15;;;;;;;20.45;4.10;;;4.10;73.30;;;;;;4992821;28;20391;-72
2022/01/06 04:01:41;;;;;;;33.75;4.95;;;4.00;73.50;;;;;;4994085;28;20482;-71
2022/01/06 04:04:07;;;;;;;24.13;4.03;;;3.90;74.30;;;;;;4993057;28;20475;-72
2022/01/06 04:06:32;;;;;;;23.23;4.07;;;3.90;75.40;;;;;;4992204;28;20421;-72
2022/01/06 04:08:58;;;;;;;19.95;3.83;;;3.90;75.40;;;;;;4992216;28;20438;-72
2022/01/06 04:11:23;;;;;;;17.53;3.77;;;3.90;75.80;;;;;;4992292;28;20397;-74
2022/01/06 04:13:49;;;;;;;16.53;3.57;;;3.80;76.30;;;;;;4992301;28;20394;-72
2022/01/06 04:16:16;;;;;;;30.90;4.90;;;3.80;76.90;;;;;;4992309;28;20402;-72
2022/01/06 04:18:42;;;;;;;24.05;4.28;;;3.80;77.20;;;;;;4992739;28;20391;-71
2022/01/06 04:21:09;;;;;;;20.98;3.50;;;3.70;77.80;;;;;;4994082;28;20460;-72
2022/01/06 04:23:35;;;;;;;25.60;3.90;;;3.70;78.40;;;;;;4994080;28;20788;-73
2022/01/06 04:26:00;;;;;;;25.67;5.55;;;3.60;79.40;;;;;;4993357;28;20884;-73
2022/01/06 04:28:26;;;;;;;18.75;4.20;;;3.60;80.70;;;;;;4992790;28;20398;-73
2022/01/06 04:30:52;;;;;;;24.70;4.37;;;3.60;80.70;;;;;;4992608;28;20427;-73
2022/01/06 04:33:18;;;;;;;25.85;5.30;;;3.60;80.60;;;;;;4990615;28;20884;-72
2022/01/06 04:35:43;;;;;;;21.60;4.00;;;3.60;80.50;;;;;;4991817;28;20899;-69
2022/01/06 04:38:09;;;;;;;23.40;4.50;;;3.50;81.30;;;;;;4991979;28;20819;-72
2022/01/06 04:40:35;;;;;;;19.27;5.10;;;3.50;81.00;;;;;;4992471;28;20818;-72
2022/01/06 04:43:00;;;;;;;24.00;4.25;;;3.50;80.20;;;;;;4992715;28;20390;-72
2022/01/06 04:45:26;;;;;;;26.73;4.95;;;3.60;79.80;;;;;;4994959;28;20394;-71
2022/01/06 04:47:51;;;;;;;26.13;4.90;;;3.50;81.30;;;;;;4999002;28;20457;-72
2022/01/06 04:50:17;;;;;;;19.07;4.57;;;3.50;82.60;;;;;;4996594;28;20446;-72
2022/01/06 04:52:42;;;;;;;23.00;5.07;;;3.60;79.10;;;;;;5002710;28;20390;-73
2022/01/06 04:55:08;;;;;;;17.25;3.75;;;3.60;78.10;;;;;;5003074;28;20867;-72
2022/01/06 04:57:34;;;;;;;34.42;4.72;;;3.60;77.20;;;;;;4995158;28;20433;-71
2022/01/06 05:00:00;;;;;;;18.97;4.50;;;3.60;77.20;;;;;;4991578;28;20493;-71
2022/01/06 05:02:25;;;;;;;29.77;5.10;;;3.50;78.00;;;;;;4993871;28;20386;-70
2022/01/06 05:04:51;;;;;;;19.70;4.47;;;3.40;78.90;;;;;;4995425;28;20394;-71
2022/01/06 05:07:16;;;;;;;17.10;4.10;;;3.40;79.70;;;;;;4994886;28;20408;-72
2022/01/06 05:09:42;;;;;;;22.10;4.43;;;3.40;80.90;;;;;;4995160;28;20456;-72
2022/01/06 05:12:08;;;;;;;26.63;5.00;;;3.30;82.20;;;;;;4994928;28;20388;-72
2022/01/06 05:14:34;;;;;;;21.80;4.90;;;3.30;81.50;;;;;;4995300;28;20391;-72
2022/01/06 05:17:00;;;;;;;17.57;4.83;;;3.40;81.30;;;;;;4995013;28;20391;-71
2022/01/06 05:19:26;;;;;;;22.08;4.50;;;3.30;82.60;;;;;;4994908;28;20804;-71
2022/01/06 05:21:52;;;;;;;19.85;5.38;;;3.30;82.90;;;;;;4995393;28;20528;-72
2022/01/06 05:24:19;;;;;;;22.67;4.82;;;3.30;82.80;;;;;;4997866;28;20394;-72
2022/01/06 05:26:45;;;;;;;17.52;4.63;;;3.20;82.70;;;;;;4997480;28;20557;-71
2022/01/06 05:29:12;;;;;;;31.85;5.72;;;3.20;83.50;;;;;;4996076;28;20411;-70
2022/01/06 05:31:38;;;;;;;33.10;5.32;;;3.30;83.00;;;;;;4994868;28;20840;-71
2022/01/06 05:34:04;;;;;;;22.65;6.20;;;3.20;82.30;;;;;;4994742;28;20461;-71
2022/01/06 05:36:30;;;;;;;21.10;5.90;;;3.00;83.80;;;;;;4992708;28;20494;-71
2022/01/06 05:38:56;;;;;;;26.35;5.50;;;2.80;87.40;;;;;;4994280;28;20767;-71
2022/01/06 05:41:22;;;;;;;23.65;5.85;;;2.70;92.00;;;;;;4994146;28;20477;-71
2022/01/06 05:43:49;;;;;;;26.47;5.30;;;2.90;93.80;;;;;;4994372;28;20491;-71
2022/01/06 05:46:16;;;;;;;26.20;5.60;;;3.00;90.80;;;;;;4994224;28;20414;-72
2022/01/06 05:48:42;;;;;;;24.67;5.82;;;3.10;86.60;;;;;;4994300;28;20868;-71
2022/01/06 05:51:08;;;;;;;25.70;5.55;;;3.10;84.90;;;;;;4994145;28;20398;-71
2022/01/06 05:53:33;;;;;;;20.67;5.68;;;3.20;82.30;;;;;;4994229;28;20414;-70
2022/01/06 05:55:59;;;;;;;24.23;5.57;;;3.20;83.00;;;;;;4994132;28;20395;-70
2022/01/06 05:58:24;;;;;;;33.65;6.22;;;3.10;83.80;;;;;;4994105;28;20398;-73
2022/01/06 06:00:50;;;;;;;22.15;5.18;;;3.10;85.40;;;;;;4993084;28;20410;-72
2022/01/06 06:03:16;;;;;;;25.85;6.05;;;3.10;85.30;;;;;;4994049;28;20386;-72
2022/01/06 06:05:42;;;;;;;26.90;6.87;;;2.70;85.70;;;;;;4994552;28;20392;-71
2022/01/06 06:08:08;;;;;;;35.35;7.18;;;2.70;91.20;;;;;;4993722;28;20390;-70
2022/01/06 06:10:34;;;;;;;25.27;5.85;;;2.50;92.00;;;;;;4993788;28;20933;-71
2022/01/06 06:13:00;;;;;;;31.40;8.20;;;2.50;96.50;;;;;;4993102;28;20453;-71
2022/01/06 06:15:26;;;;;;;27.77;8.43;;;2.30;95.20;;;;;;4993763;28;20744;-71
2022/01/06 06:17:52;;;;;;;27.93;6.80;;;2.10;97.90;;;;;;4993723;28;20387;-71
2022/01/06 06:20:18;;;;;;;20.92;6.25;;;2.00;99.40;;;;;;4993850;28;20473;-72
2022/01/06 06:22:44;;;;;;;23.48;6.47;;;1.90;99.90;;;;;;4993734;28;20449;-72
2022/01/06 06:25:10;;;;;;;23.83;6.50;;;1.90;99.90;;;;;;4994350;28;20391;-72
2022/01/06 06:27:35;;;;;;;28.03;6.97;;;1.90;99.90;;;;;;4993165;28;20434;-71
2022/01/06 06:30:01;;;;;;;27.00;6.63;;;2.20;99.90;;;;;;4996362;28;20386;-72
2022/01/06 06:32:28;;;;;;;27.38;5.65;;;2.30;99.90;;;;;;4994324;28;20390;-71
2022/01/06 06:34:53;;;;;;;32.25;6.72;;;2.10;99.90;;;;;;4993747;28;20405;-71
2022/01/06 06:37:19;;;;;;;25.75;6.63;;;1.90;99.90;;;;;;4993223;28;20494;-72
2022/01/06 06:39:45;;;;;;;27.30;7.60;;;1.90;99.90;;;;;;4993491;28;20567;-70
2022/01/06 06:42:10;;;;;;;30.33;6.72;;;2.00;99.90;;;;;;4993427;28;20473;-71
2022/01/06 06:44:36;;;;;;;23.07;6.53;;;2.10;99.90;;;;;;4993335;28;20898;-72
2022/01/06 06:47:02;;;;;;;26.33;7.80;;;2.10;99.90;;;;;;4994204;28;20422;-72
2022/01/06 06:49:29;;;;;;;23.90;6.20;;;2.30;99.90;;;;;;4993345;28;20395;-72
2022/01/06 06:51:55;;;;;;;23.58;7.18;;;2.50;99.90;;;;;;4993312;28;20883;-71
2022/01/06 06:54:20;;;;;;;29.17;6.75;;;2.50;99.90;;;;;;4993223;28;20407;-71
2022/01/06 06:56:46;;;;;;;28.85;6.68;;;2.50;99.90;;;;;;4992782;28;20383;-71
2022/01/06 06:59:11;;;;;;;24.07;6.97;;;2.70;99.90;;;;;;4993392;28;20860;-72
2022/01/06 07:01:37;;;;;;;21.10;7.27;;;2.70;99.90;;;;;;4993720;28;20399;-72
2022/01/06 07:04:03;;;;;;;25.50;7.90;;;2.60;99.90;;;;;;4993253;28;20414;-72
2022/01/06 07:06:28;;;;;;;28.50;8.40;;;2.70;99.90;;;;;;4992925;28;20485;-73
2022/01/06 07:08:54;;;;;;;29.10;7.55;;;2.80;99.90;;;;;;4993243;28;20421;-73
2022/01/06 07:11:22;;;;;;;22.27;6.30;;;2.80;99.90;;;;;;4993317;28;20395;-70
2022/01/06 07:13:48;;;;;;;20.90;6.88;;;2.90;99.90;;;;;;4992722;28;20397;-71
2022/01/06 07:16:14;;;;;;;20.85;6.40;;;3.00;99.90;;;;;;4992687;28;20864;-72
2022/01/06 07:18:39;;;;;;;30.20;7.40;;;3.10;97.00;;;;;;4993053;28;20382;-71
2022/01/06 07:21:05;;;;;;;25.57;5.90;;;3.00;96.10;;;;;;4992937;28;20413;-71
2022/01/06 07:23:30;;;;;;;21.15;6.25;;;3.00;97.50;;;;;;4991585;28;20390;-72
2022/01/06 07:25:56;;;;;;;23.98;6.80;;;3.10;95.10;;;;;;4991362;28;20412;-71
2022/01/06 07:28:22;;;;;;;21.58;6.25;;;3.00;95.90;;;;;;4994967;28;20420;-71
2022/01/06 07:30:47;;;;;;;24.43;6.37;;;3.40;91.40;;;;;;4997240;28;20473;-72
2022/01/06 07:33:13;;;;;;;29.20;6.50;;;3.40;86.30;;;;;;4997704;28;20399;-72
2022/01/06 07:35:38;;;;;;;20.73;6.40;;;3.20;85.10;;;;;;5000156;28;20386;-72
2022/01/06 07:38:04;;;;;;;18.27;5.80;;;3.20;88.60;;;;;;4996055;28;20395;-72
2022/01/06 07:40:29;;;;;;;21.40;6.15;;;3.30;84.90;;;;;;4996486;28;20414;-72
2022/01/06 07:42:55;;;;;;;26.52;6.70;;;3.30;81.10;;;;;;4997331;28;20547;-72
2022/01/06 07:45:21;;;;;;;23.75;6.30;;;3.20;82.80;;;;;;4998666;28;20730;-73
2022/01/06 07:48:04;;;;;;;19.20;6.00;;;3.00;86.20;;;;;;4997264;28;20410;-70
2022/01/06 07:50:33;;;;;;;27.92;6.93;;;2.80;87.40;;;;;;4999227;28;20394;-72
2022/01/06 07:52:59;;;;;;;35.17;7.32;;;2.60;90.50;;;;;;5000993;28;20496;-72
2022/01/06 07:55:26;;;;;;;26.15;8.90;;;2.50;94.40;;;;;;5000363;28;20417;-71
2022/01/06 07:57:54;;;;;;;22.25;7.07;;;2.40;97.90;;;;;;4992272;28;20398;-72
2022/01/06 08:00:20;;;;;;;29.02;7.63;;;2.60;97.70;;;;;;4994508;28;20390;-73
2022/01/06 08:02:47;;;;;;;29.43;7.60;;;2.50;96.80;;;;;;4991081;28;20431;-70
2022/01/06 08:05:15;;;;;;;25.50;7.25;;;2.70;98.60;;;;;;4992728;28;20398;-71
2022/01/06 08:07:40;;;;;;;24.25;7.75;;;2.60;96.60;;;;;;4991783;28;20410;-72
2022/01/06 08:10:07;;;;;;;23.92;7.53;;;2.50;97.80;;;;;;4992831;28;20421;-72
2022/01/06 08:12:33;;;;;;;22.63;6.50;;;2.60;99.50;;;;;;4997171;28;20865;-71
2022/01/06 08:14:59;;;;;;;27.08;7.97;;;2.70;99.90;;;;;;4998450;28;20394;-71
2022/01/06 08:17:24;;;;;;;22.07;7.33;;;2.70;99.50;;;;;;4996203;28;20452;-70
2022/01/06 08:19:51;;;;;;;29.80;7.97;;;2.70;99.90;;;;;;4996667;28;20425;-72
2022/01/06 08:22:20;;;;;;;24.25;7.20;;;2.70;99.90;;;;;;4993373;28;20425;-71
2022/01/06 08:24:46;;;;;;;23.67;5.72;;;2.90;99.90;;;;;;4993245;28;20470;-71
2022/01/06 08:27:11;;;;;;;24.30;7.47;;;3.20;93.60;;;;;;4996314;28;20456;-72
2022/01/06 08:29:40;;;;;;;25.00;8.10;;;3.20;89.50;;;;;;4996206;28;20891;-72
2022/01/06 08:32:07;;;;;;;22.73;7.13;;;3.10;89.80;;;;;;4995500;28;20402;-72
2022/01/06 08:34:33;;;;;;;27.55;7.38;;;3.40;89.30;;;;;;4992023;28;20387;-73
2022/01/06 08:36:59;;;;;;;25.52;7.65;;;3.50;81.90;;;;;;4991567;28;20391;-71
2022/01/06 08:39:25;;;;;;;24.70;7.47;;;3.50;82.90;;;;;;4991724;28;20914;-73
2022/01/06 08:41:51;;;;;;;27.03;7.13;;;3.50;83.60;;;;;;4991626;28;20428;-72
2022/01/06 08:44:17;;;;;;;27.80;7.72;;;3.70;79.20;;;;;;4991436;28;20482;-71
2022/01/06 08:46:42;;;;;;;24.97;7.00;;;3.50;80.40;;;;;;4990800;28;20497;-71
2022/01/06 08:49:11;;;;;;;27.05;7.00;;;3.40;82.50;;;;;;4991601;28;20401;-72
2022/01/06 08:51:38;;;;;;;26.80;7.80;;;3.40;83.90;;;;;;4991526;28;20433;-72
2022/01/06 08:54:04;;;;;;;32.35;7.40;;;3.30;85.30;;;;;;4993091;28;20382;-72
2022/01/06 08:56:29;;;;;;;28.00;7.18;;;3.30;84.90;;;;;;4991115;28;20396;-73
2022/01/06 08:58:55;;;;;;;25.53;6.90;;;3.40;85.60;;;;;;4991353;28;20390;-71
2022/01/06 09:01:21;;;;;;;36.10;10.60;;;3.50;85.10;;;;;;4991561;28;20486;-71
2022/01/06 09:03:46;;;;;;;21.10;7.65;;;3.30;84.90;;;;;;4994506;28;20883;-72
2022/01/06 09:06:12;;;;;;;20.05;7.28;;;3.20;87.00;;;;;;4998384;28;20456;-72
2022/01/06 09:08:38;;;;;;;29.33;7.40;;;3.20;89.30;;;;;;5003856;28;20461;-71
2022/01/06 09:11:04;;;;;;;26.10;7.45;;;3.20;91.70;;;;;;4996821;28;20394;-71
2022/01/06 09:13:30;;;;;;;25.27;6.97;;;3.60;90.50;;;;;;4995178;28;20397;-72
2022/01/06 09:15:56;;;;;;;25.43;8.90;;;3.60;87.00;;;;;;4996897;28;20398;-72
2022/01/06 09:18:22;;;;;;;26.55;7.38;;;3.70;86.40;;;;;;4992671;28;20398;-72
2022/01/06 09:20:47;;;;;;;23.53;7.87;;;3.70;85.00;;;;;;4991483;28;20480;-72
2022/01/06 09:23:13;;;;;;;30.47;7.63;;;3.90;84.40;;;;;;4991247;28;20390;-72
2022/01/06 09:25:39;;;;;;;25.90;8.35;;;4.00;81.60;;;;;;4991303;28;20393;-72
2022/01/06 09:28:04;;;;;;;25.55;7.47;;;3.90;81.10;;;;;;4990617;28;20856;-72
2022/01/06 09:30:30;;;;;;;23.77;8.20;;;3.90;83.10;;;;;;4991120;28;20883;-71
2022/01/06 09:32:55;;;;;;;24.25;8.30;;;4.30;86.30;;;;;;4990998;28;20387;-71
2022/01/06 09:35:22;;;;;;;22.60;7.10;;;4.60;77.00;;;;;;4991277;28;20876;-71
2022/01/06 09:37:47;;;;;;;32.35;8.70;;;4.70;72.40;;;;;;4991474;28;20391;-72
2022/01/06 09:40:13;;;;;;;23.60;7.50;;;4.60;72.00;;;;;;4990847;28;20756;-72
2022/01/06 09:42:41;;;;;;;17.10;6.73;;;4.50;71.20;;;;;;4991167;28;20398;-72
2022/01/06 09:45:07;;;;;;;21.08;7.47;;;4.40;72.90;;;;;;4990437;28;20394;-72
2022/01/06 09:47:33;;;;;;;28.17;7.03;;;4.50;72.40;;;;;;4969904;28;20866;-72
2022/01/06 09:49:59;;;;;;;26.27;8.07;;;4.40;72.00;;;;;;4974621;28;20493;-73
2022/01/06 09:52:25;;;;;;;37.72;11.82;;;4.40;72.30;;;;;;4974978;28;20428;-72
2022/01/06 09:54:51;;;;;;;32.88;8.68;;;4.50;73.10;;;;;;4974993;28;20880;-72
2022/01/06 09:57:16;;;;;;;27.30;8.30;;;4.60;68.90;;;;;;4974678;28;20392;-72
2022/01/06 09:59:44;;;;;;;29.10;8.73;;;4.60;68.90;;;;;;4975001;28;20411;-72
2022/01/06 10:02:16;;;;;;;27.63;8.75;;;4.60;70.20;;;;;;4974864;28;20394;-71
2022/01/06 10:04:43;;;;;;;23.20;8.23;;;4.60;69.70;;;;;;4975184;28;20460;-72
2022/01/06 10:07:10;;;;;;;23.70;8.20;;;4.60;70.00;;;;;;4974366;28;20419;-73
2022/01/06 10:09:38;;;;;;;30.52;8.52;;;4.60;71.00;;;;;;4974780;28;20887;-72
2022/01/06 10:12:11;;;;;;;26.33;9.60;;;4.60;71.50;;;;;;4974739;28;20450;-72
2022/01/06 10:14:44;;;;;;;28.50;10.10;;;4.80;71.30;;;;;;4976165;28;20388;-71
2022/01/06 10:17:12;;;;;;;25.63;9.60;;;5.00;66.70;;;;;;4974810;28;20392;-72
2022/01/06 10:19:42;;;;;;;32.78;10.23;;;5.00;65.20;;;;;;4975180;28;20388;-72
2022/01/06 10:22:12;;;;;;;23.33;8.70;;;5.10;64.00;;;;;;4989309;28;20392;-73
2022/01/06 10:24:37;;;;;;;32.38;9.63;;;5.20;62.00;;;;;;4974487;28;20400;-72
2022/01/06 10:27:09;;;;;;;31.38;9.13;;;5.40;60.10;;;;;;4974284;28;20789;-72
2022/01/06 10:29:37;;;;;;;26.17;10.48;;;5.50;58.80;;;;;;4974276;28;20494;-71
2022/01/06 10:32:11;;;;;;;33.60;11.20;;;5.60;57.90;;;;;;4974238;28;20730;-72
2022/01/06 10:34:40;;;;;;;37.33;11.93;;;5.70;58.10;;;;;;4974232;28;20391;-72
2022/01/06 10:37:22;;;;;;;33.10;11.48;;;5.80;57.00;;;;;;4973868;28;20412;-72
2022/01/06 10:39:50;;;;;;;40.60;13.18;;;6.00;56.20;;;;;;4974769;28;20419;-72
2022/01/06 10:42:16;;;;;;;36.72;12.10;;;6.10;55.80;;;;;;4975017;28;20392;-72
2022/01/06 10:44:51;;;;;;;33.67;13.23;;;6.30;54.30;;;;;;4981327;28;20805;-72
2022/01/06 10:47:39;;;;;;;30.20;11.73;;;6.40;52.90;;;;;;4977496;28;20434;-72
2022/01/06 10:50:17;;;;;;;38.00;14.73;;;6.40;51.00;;;;;;4982807;28;20463;-72
2022/01/06 10:52:47;;;;;;;43.75;13.23;;;6.30;51.90;;;;;;4986906;28;20401;-73
2022/01/06 10:55:19;;;;;;;42.00;12.02;;;6.40;51.60;;;;;;4978512;28;20378;-72
2022/01/06 10:57:56;;;;;;;29.63;13.25;;;6.70;48.70;;;;;;4974176;28;20398;-72
2022/01/06 11:00:25;;;;;;;32.83;11.10;;;6.80;49.00;;;;;;4973589;28;20773;-72
2022/01/06 11:02:51;;;;;;;34.88;12.68;;;6.70;47.20;;;;;;4974931;28;20390;-72
2022/01/06 11:05:17;;;;;;;28.02;11.00;;;6.70;48.20;;;;;;4989310;28;20586;-72
2022/01/06 11:07:43;;;;;;;33.80;10.82;;;6.70;48.60;;;;;;4973258;28;20412;-73
2022/01/06 11:10:15;;;;;;;33.90;11.83;;;6.80;47.50;;;;;;4973245;28;20443;-72
2022/01/06 11:12:41;;;;;;;30.38;11.23;;;6.70;47.10;;;;;;4973779;28;20384;-73
2022/01/06 11:15:08;;;;;;;35.63;12.50;;;6.60;48.20;;;;;;4973628;28;20407;-73
2022/01/06 11:17:35;;;;;;;39.75;12.38;;;6.60;48.90;;;;;;4973326;28;20435;-72
2022/01/06 11:20:01;;;;;;;36.92;12.85;;;6.50;49.00;;;;;;4973137;28;20400;-72
2022/01/06 11:22:27;;;;;;;32.58;11.90;;;6.50;50.00;;;;;;4973156;28;20396;-72
2022/01/06 11:24:54;;;;;;;33.90;12.10;;;6.50;49.80;;;;;;4988402;28;20392;-72
2022/01/06 11:27:34;;;;;;;28.30;11.85;;;6.50;50.60;;;;;;4973057;28;20470;-71
2022/01/06 11:30:10;;;;;;;32.35;12.07;;;6.40;50.20;;;;;;4974731;28;20385;-73
2022/01/06 11:32:36;;;;;;;37.35;13.70;;;6.30;49.70;;;;;;4974701;28;20391;-73
2022/01/06 11:35:03;;;;;;;36.63;13.68;;;6.20;51.10;;;;;;4975483;28;20392;-73
2022/01/06 11:37:48;;;;;;;30.55;13.60;;;6.20;51.80;;;;;;4974583;28;20405;-71
2022/01/06 11:40:27;;;;;;;37.35;14.15;;;6.10;51.00;;;;;;4975070;28;20398;-72
2022/01/06 11:42:54;;;;;;;41.40;15.07;;;6.00;52.30;;;;;;4974875;28;20452;-74
2022/01/06 11:45:20;;;;;;;37.17;15.35;;;5.90;53.20;;;;;;4976523;28;20427;-71
2022/01/06 11:47:46;;;;;;;36.33;15.07;;;5.90;55.30;;;;;;4975533;28;20412;-73
2022/01/06 11:50:16;;;;;;;39.07;15.70;;;5.90;55.40;;;;;;4974641;28;20794;-73
2022/01/06 11:52:52;;;;;;;42.67;16.60;;;5.90;55.10;;;;;;4974701;28;20417;-72
2022/01/06 11:55:19;;;;;;;43.97;14.73;;;5.90;55.90;;;;;;4974186;28;20413;-73
2022/01/06 11:57:45;;;;;;;35.72;15.02;;;6.10;56.60;;;;;;4974555;28;20390;-72
2022/01/06 12:00:20;;;;;;;32.53;15.53;;;6.40;54.80;;;;;;4974713;28;20454;-73
2022/01/06 12:03:06;;;;;;;40.53;16.70;;;6.60;52.60;;;;;;4974797;28;20431;-74
2022/01/06 12:05:48;;;;;;;35.53;16.50;;;6.60;51.70;;;;;;4975595;28;20398;-73
2022/01/06 12:08:16;;;;;;;41.83;16.17;;;6.60;51.20;;;;;;4974183;28;20390;-72
2022/01/06 12:10:46;;;;;;;32.33;14.97;;;6.60;51.20;;;;;;4975056;28;20424;-72
2022/01/06 12:13:13;;;;;;;33.08;15.35;;;6.70;51.60;;;;;;4976222;28;20422;-72
2022/01/06 12:15:50;;;;;;;40.95;15.70;;;6.80;50.40;;;;;;4976989;28;20746;-72
2022/01/06 12:18:27;;;;;;;32.63;14.25;;;6.70;50.00;;;;;;4976153;28;20440;-72
2022/01/06 12:20:54;;;;;;;41.10;14.80;;;6.70;49.50;;;;;;4976930;28;20428;-72
2022/01/06 12:23:22;;;;;;;38.08;14.70;;;6.70;49.80;;;;;;4977857;28;20396;-72
2022/01/06 12:26:03;;;;;;;32.50;14.18;;;6.70;50.40;;;;;;4974183;28;20465;-72
2022/01/06 12:28:32;;;;;;;36.65;14.00;;;6.70;50.50;;;;;;4973086;28;20498;-72
2022/01/06 12:31:00;;;;;;;34.78;12.60;;;6.80;50.90;;;;;;4973150;28;20399;-73
2022/01/06 12:33:27;;;;;;;37.10;13.15;;;6.80;50.20;;;;;;4973256;28;20384;-73
2022/01/06 12:35:54;;;;;;;37.45;13.73;;;7.00;49.80;;;;;;4972841;28;20515;-73
2022/01/06 12:38:31;;;;;;;35.17;12.90;;;7.10;49.60;;;;;;4973341;28;20423;-72
2022/01/06 12:41:00;;;;;;;34.65;12.70;;;7.20;49.30;;;;;;4975751;28;20403;-72
2022/01/06 12:43:31;;;;;;;27.13;12.02;;;7.30;49.00;;;;;;4977612;28;20728;-72
2022/01/06 12:46:08;;;;;;;30.90;11.60;;;7.50;47.40;;;;;;4990784;28;20472;-73
2022/01/06 12:48:45;;;;;;;30.05;11.38;;;7.50;46.50;;;;;;4975603;28;20422;-73
2022/01/06 12:51:23;;;;;;;36.25;12.27;;;7.60;46.20;;;;;;4973730;28;20403;-72
2022/01/06 12:53:51;;;;;;;31.90;12.25;;;7.60;46.90;;;;;;4988076;28;20781;-72
2022/01/06 12:56:33;;;;;;;33.38;12.30;;;7.70;45.70;;;;;;4974610;28;20397;-73